createdAt,value
2023-03-08T00:00:20.409Z,7.70
2023-03-08T00:00:52.905Z,6.90
2023-03-08T00:01:25.359Z,7.30
2023-03-08T00:01:57.832Z,7.50
2023-03-08T00:02:30.306Z,6.70
2023-03-08T00:03:02.790Z,6.50
2023-03-08T00:03:35.319Z,7.40
2023-03-08T00:04:07.871Z,8.70
2023-03-08T00:04:40.367Z,8.20
2023-03-08T00:05:12.801Z,7.20
2023-03-08T00:05:45.257Z,7.80
2023-03-08T00:06:17.736Z,7.90
2023-03-08T00:06:50.190Z,6.90
2023-03-08T00:07:22.655Z,7.20
2023-03-08T00:07:55.128Z,7.60
2023-03-08T00:08:27.680Z,7.90
2023-03-08T00:09:00.126Z,7.50
2023-03-08T00:09:32.582Z,7.90
2023-03-08T00:10:05.041Z,7.70
2023-03-08T00:10:37.546Z,7.30
2023-03-08T00:11:10.045Z,7.90
2023-03-08T00:11:42.525Z,7.80
2023-03-08T00:12:15.033Z,7.50
2023-03-08T00:12:47.544Z,7.90
2023-03-08T00:13:20.045Z,7.40
2023-03-08T00:13:52.472Z,8.10
2023-03-08T00:14:24.945Z,7.10
2023-03-08T00:14:57.505Z,6.80
2023-03-08T00:15:29.960Z,7.70
2023-03-08T00:16:02.491Z,7.30
2023-03-08T00:16:34.891Z,6.90
2023-03-08T00:17:07.359Z,6.50
2023-03-08T00:17:39.810Z,7.00
2023-03-08T00:18:12.295Z,8.20
2023-03-08T00:18:44.774Z,7.80
2023-03-08T00:19:17.233Z,7.60
2023-03-08T00:19:49.696Z,7.60
2023-03-08T00:20:22.172Z,8.00
2023-03-08T00:20:54.657Z,7.90
2023-03-08T00:21:27.136Z,7.20
2023-03-08T00:21:59.635Z,7.30
2023-03-08T00:22:32.128Z,7.90
2023-03-08T00:23:04.602Z,7.90
2023-03-08T00:23:37.094Z,7.70
2023-03-08T00:24:09.552Z,7.70
2023-03-08T00:24:42.059Z,8.00
2023-03-08T00:25:14.556Z,8.00
2023-03-08T00:25:47.026Z,7.90
2023-03-08T00:26:19.487Z,7.70
2023-03-08T00:26:51.953Z,7.80
2023-03-08T00:27:24.440Z,7.60
2023-03-08T00:27:56.899Z,7.80
2023-03-08T00:28:29.369Z,7.60
2023-03-08T00:29:01.864Z,8.30
2023-03-08T00:29:34.312Z,8.50
2023-03-08T00:30:06.815Z,8.70
2023-03-08T00:30:39.305Z,8.70
2023-03-08T00:31:11.830Z,8.50
2023-03-08T00:31:44.318Z,8.90
2023-03-08T00:32:16.690Z,8.70
2023-03-08T00:32:49.123Z,8.60
2023-03-08T00:33:21.580Z,8.70
2023-03-08T00:33:54.066Z,8.60
2023-03-08T00:34:26.530Z,8.40
2023-03-08T00:34:59.005Z,9.00
2023-03-08T00:35:31.534Z,8.50
2023-03-08T00:36:03.971Z,7.90
2023-03-08T00:36:36.452Z,8.50
2023-03-08T00:37:08.911Z,9.40
2023-03-08T00:37:41.381Z,8.30
2023-03-08T00:38:13.839Z,8.60
2023-03-08T00:38:46.300Z,9.20
2023-03-08T00:39:18.839Z,9.50
2023-03-08T00:39:51.342Z,9.30
2023-03-08T00:40:23.830Z,7.50
2023-03-08T00:40:56.369Z,7.20
2023-03-08T00:41:28.879Z,9.10
2023-03-08T00:42:01.372Z,8.50
2023-03-08T00:42:33.878Z,7.60
2023-03-08T00:43:06.357Z,7.90
2023-03-08T00:43:38.862Z,8.20
2023-03-08T00:44:11.325Z,9.10
2023-03-08T00:44:43.894Z,8.90
2023-03-08T00:45:16.377Z,8.20
2023-03-08T00:45:52.848Z,8.30
2023-03-08T00:46:21.445Z,7.20
2023-03-08T00:46:54.039Z,7.80
2023-03-08T00:47:26.436Z,8.70
2023-03-08T00:47:58.931Z,8.10
2023-03-08T00:48:31.393Z,8.80
2023-03-08T00:49:03.894Z,8.90
2023-03-08T00:49:36.389Z,8.40
2023-03-08T00:50:08.880Z,8.60
2023-03-08T00:50:41.350Z,9.30
2023-03-08T00:51:13.858Z,8.30
2023-03-08T00:51:46.298Z,7.50
2023-03-08T00:52:18.778Z,7.00
2023-03-08T00:52:51.240Z,8.50
2023-03-08T00:53:23.717Z,9.20
2023-03-08T00:53:56.171Z,8.60
2023-03-08T00:54:28.635Z,9.20
2023-03-08T00:55:01.151Z,9.80
2023-03-08T00:55:33.674Z,8.90
2023-03-08T00:56:06.169Z,8.30
2023-03-08T00:56:38.660Z,7.90
2023-03-08T00:57:11.111Z,8.20
2023-03-08T00:57:43.589Z,8.10
2023-03-08T00:58:16.057Z,8.90
2023-03-08T00:58:48.527Z,9.50
2023-03-08T00:59:21.046Z,9.30
2023-03-08T00:59:53.510Z,9.40
2023-03-08T01:00:25.937Z,8.80
2023-03-08T01:00:58.480Z,8.40
2023-03-08T01:01:30.886Z,9.60
2023-03-08T01:02:03.382Z,9.50
2023-03-08T01:02:35.856Z,9.30
2023-03-08T01:03:08.359Z,9.60
2023-03-08T01:03:40.815Z,9.20
2023-03-08T01:04:13.356Z,9.00
2023-03-08T01:04:45.744Z,8.50
2023-03-08T01:05:18.220Z,9.00
2023-03-08T01:05:50.737Z,9.80
2023-03-08T01:06:23.219Z,9.00
2023-03-08T01:06:55.729Z,9.80
2023-03-08T01:07:28.196Z,8.80
2023-03-08T01:08:00.660Z,8.30
2023-03-08T01:08:33.122Z,8.80
2023-03-08T01:09:05.574Z,8.50
2023-03-08T01:09:38.065Z,8.60
2023-03-08T01:10:10.523Z,9.30
2023-03-08T01:10:43.054Z,9.90
2023-03-08T01:11:15.512Z,9.80
2023-03-08T01:11:47.982Z,9.00
2023-03-08T01:12:20.467Z,9.30
2023-03-08T01:12:52.959Z,9.40
2023-03-08T01:13:25.428Z,10.10
2023-03-08T01:13:57.933Z,10.00
2023-03-08T01:14:30.396Z,9.40
2023-03-08T01:15:02.867Z,9.40
2023-03-08T01:15:35.328Z,9.30
2023-03-08T01:16:08.122Z,9.20
2023-03-08T01:16:40.252Z,9.10
2023-03-08T01:17:12.742Z,9.90
2023-03-08T01:17:45.286Z,9.70
2023-03-08T01:18:17.741Z,9.30
2023-03-08T01:18:50.233Z,10.40
2023-03-08T01:19:22.703Z,9.60
2023-03-08T01:19:55.247Z,8.80
2023-03-08T01:20:27.729Z,8.60
2023-03-08T01:21:00.207Z,9.00
2023-03-08T01:21:32.676Z,10.10
2023-03-08T01:22:05.135Z,10.70
2023-03-08T01:22:37.593Z,9.50
2023-03-08T01:23:10.064Z,8.70
2023-03-08T01:23:42.675Z,9.20
2023-03-08T01:24:14.986Z,10.40
2023-03-08T01:24:47.464Z,10.20
2023-03-08T01:25:19.925Z,9.10
2023-03-08T01:25:52.383Z,8.30
2023-03-08T01:26:24.849Z,8.60
2023-03-08T01:26:57.316Z,9.70
2023-03-08T01:27:29.775Z,9.50
2023-03-08T01:28:02.210Z,9.20
2023-03-08T01:28:34.697Z,9.10
2023-03-08T01:29:07.258Z,8.80
2023-03-08T01:29:39.737Z,8.50
2023-03-08T01:30:12.202Z,9.00
2023-03-08T01:30:44.680Z,8.90
2023-03-08T01:31:17.210Z,9.30
2023-03-08T01:31:49.729Z,10.40
2023-03-08T01:32:22.225Z,10.40
2023-03-08T01:32:54.640Z,9.60
2023-03-08T01:33:27.164Z,9.50
2023-03-08T01:33:59.605Z,9.30
2023-03-08T01:34:32.083Z,9.80
2023-03-08T01:35:04.621Z,9.70
2023-03-08T01:35:37.053Z,9.90
2023-03-08T01:36:09.553Z,10.30
2023-03-08T01:36:41.985Z,10.30
2023-03-08T01:37:14.494Z,10.10
2023-03-08T01:37:46.942Z,9.50
2023-03-08T01:38:19.384Z,9.30
2023-03-08T01:38:51.869Z,9.50
2023-03-08T01:39:24.336Z,9.70
2023-03-08T01:39:56.801Z,10.10
2023-03-08T01:40:29.341Z,10.40
2023-03-08T01:41:01.823Z,10.60
2023-03-08T01:41:34.279Z,9.00
2023-03-08T01:42:06.766Z,9.50
2023-03-08T01:42:39.248Z,10.70
2023-03-08T01:43:11.700Z,11.00
2023-03-08T01:43:44.192Z,10.20
2023-03-08T01:44:16.674Z,9.50
2023-03-08T01:44:49.220Z,10.90
2023-03-08T01:45:21.736Z,9.20
2023-03-08T01:45:54.302Z,8.20
2023-03-08T01:46:26.774Z,9.20
2023-03-08T01:46:59.235Z,9.40
2023-03-08T01:47:31.716Z,10.20
2023-03-08T01:48:04.226Z,10.10
2023-03-08T01:48:36.698Z,9.80
2023-03-08T01:49:09.181Z,9.50
2023-03-08T01:49:41.616Z,9.10
2023-03-08T01:50:14.106Z,9.60
2023-03-08T01:50:46.594Z,8.90
2023-03-08T01:51:19.101Z,8.10
2023-03-08T01:51:51.593Z,8.90
2023-03-08T01:52:24.060Z,9.10
2023-03-08T01:52:56.536Z,9.70
2023-03-08T01:53:29.037Z,9.90
2023-03-08T01:54:01.560Z,9.80
2023-03-08T01:54:34.014Z,9.40
2023-03-08T01:55:06.507Z,8.90
2023-03-08T01:55:39.016Z,9.10
2023-03-08T01:56:11.477Z,9.00
2023-03-08T01:56:43.968Z,9.80
2023-03-08T01:57:16.435Z,9.80
2023-03-08T01:57:48.912Z,9.20
2023-03-08T01:58:21.396Z,10.20
2023-03-08T01:58:53.915Z,9.80
2023-03-08T01:59:26.390Z,9.00
2023-03-08T01:59:58.879Z,9.30
2023-03-08T02:00:31.336Z,8.60
2023-03-08T02:01:03.853Z,8.60
2023-03-08T02:01:36.327Z,9.00
2023-03-08T02:02:08.829Z,9.30
2023-03-08T02:02:41.347Z,8.30
2023-03-08T02:03:13.846Z,8.50
2023-03-08T02:03:46.315Z,8.20
2023-03-08T02:04:18.829Z,8.30
2023-03-08T02:04:51.292Z,9.60
2023-03-08T02:05:23.779Z,9.20
2023-03-08T02:05:56.362Z,9.50
2023-03-08T02:06:28.826Z,9.80
2023-03-08T02:07:01.327Z,9.70
2023-03-08T02:07:33.893Z,9.30
2023-03-08T02:08:06.360Z,10.10
2023-03-08T02:08:38.816Z,10.30
2023-03-08T02:09:11.299Z,10.30
2023-03-08T02:09:43.791Z,9.70
2023-03-08T02:10:16.235Z,8.60
2023-03-08T02:10:48.680Z,8.40
2023-03-08T02:11:21.174Z,9.00
2023-03-08T02:11:53.670Z,9.50
2023-03-08T02:12:26.147Z,9.20
2023-03-08T02:12:58.625Z,9.50
2023-03-08T02:13:31.089Z,9.50
2023-03-08T02:14:03.583Z,9.80
2023-03-08T02:14:36.075Z,9.90
2023-03-08T02:15:08.594Z,8.90
2023-03-08T02:15:41.021Z,9.50
2023-03-08T02:16:13.513Z,9.60
2023-03-08T02:16:46.011Z,9.40
2023-03-08T02:17:18.480Z,10.30
2023-03-08T02:17:50.996Z,10.40
2023-03-08T02:18:23.464Z,9.10
2023-03-08T02:18:55.976Z,8.50
2023-03-08T02:19:28.447Z,8.40
2023-03-08T02:20:00.955Z,8.70
2023-03-08T02:20:33.509Z,8.80
2023-03-08T02:21:06.085Z,8.10
2023-03-08T02:21:38.575Z,9.20
2023-03-08T02:22:11.039Z,10.80
2023-03-08T02:22:43.500Z,10.30
2023-03-08T02:23:16.031Z,9.70
2023-03-08T02:23:48.482Z,9.90
2023-03-08T02:24:20.989Z,9.70
2023-03-08T02:24:53.538Z,9.60
2023-03-08T02:25:26.015Z,9.40
2023-03-08T02:25:58.515Z,9.90
2023-03-08T02:26:30.977Z,9.50
2023-03-08T02:27:03.431Z,9.90
2023-03-08T02:27:35.930Z,10.50
2023-03-08T02:28:08.419Z,9.50
2023-03-08T02:28:40.888Z,9.30
2023-03-08T02:29:13.369Z,9.80
2023-03-08T02:29:45.853Z,9.90
2023-03-08T02:30:18.343Z,9.80
2023-03-08T02:30:50.864Z,9.70
2023-03-08T02:31:23.278Z,10.30
2023-03-08T02:31:55.767Z,10.40
2023-03-08T02:32:28.255Z,10.40
2023-03-08T02:33:00.675Z,10.60
2023-03-08T02:33:33.154Z,11.00
2023-03-08T02:34:05.695Z,10.00
2023-03-08T02:34:38.295Z,9.50
2023-03-08T02:35:10.766Z,10.00
2023-03-08T02:35:43.241Z,9.70
2023-03-08T02:36:15.715Z,9.50
2023-03-08T02:36:48.217Z,10.30
2023-03-08T02:37:20.775Z,10.40
2023-03-08T02:37:53.253Z,10.20
2023-03-08T02:38:25.761Z,10.60
2023-03-08T02:38:58.235Z,11.60
2023-03-08T02:39:30.751Z,11.60
2023-03-08T02:40:03.237Z,11.50
2023-03-08T02:40:35.711Z,10.30
2023-03-08T02:41:08.266Z,10.20
2023-03-08T02:41:40.807Z,11.50
2023-03-08T02:42:13.273Z,11.00
2023-03-08T02:42:45.743Z,10.30
2023-03-08T02:43:18.202Z,10.60
2023-03-08T02:43:50.728Z,10.20
2023-03-08T02:44:23.207Z,10.40
2023-03-08T02:44:55.700Z,11.30
2023-03-08T02:45:28.154Z,12.10
2023-03-08T02:46:00.627Z,11.80
2023-03-08T02:46:33.107Z,10.80
2023-03-08T02:47:05.580Z,10.10
2023-03-08T02:47:38.065Z,9.60
2023-03-08T02:48:10.531Z,10.90
2023-03-08T02:48:42.985Z,12.40
2023-03-08T02:49:15.477Z,10.90
2023-03-08T02:49:48.005Z,11.40
2023-03-08T02:50:20.477Z,11.40
2023-03-08T02:50:52.981Z,9.80
2023-03-08T02:51:25.404Z,10.10
2023-03-08T02:51:57.910Z,10.30
2023-03-08T02:52:30.369Z,10.60
2023-03-08T02:53:02.845Z,10.30
2023-03-08T02:53:35.307Z,10.90
2023-03-08T02:54:07.821Z,12.00
2023-03-08T02:54:40.331Z,11.10
2023-03-08T02:55:12.752Z,10.20
2023-03-08T02:55:45.216Z,11.20
2023-03-08T02:56:17.688Z,10.40
2023-03-08T02:56:50.240Z,9.90
2023-03-08T02:57:22.726Z,10.90
2023-03-08T02:57:55.223Z,11.70
2023-03-08T02:58:27.705Z,10.90
2023-03-08T02:59:00.245Z,11.10
2023-03-08T02:59:32.727Z,11.00
2023-03-08T03:00:05.195Z,11.60
2023-03-08T03:00:37.659Z,11.90
2023-03-08T03:01:10.171Z,10.90
2023-03-08T03:01:42.656Z,10.70
2023-03-08T03:02:15.054Z,11.40
2023-03-08T03:02:47.512Z,11.10
2023-03-08T03:03:20.087Z,10.10
2023-03-08T03:03:52.615Z,10.40
2023-03-08T03:04:25.089Z,11.60
2023-03-08T03:04:57.681Z,12.00
2023-03-08T03:05:30.189Z,10.80
2023-03-08T03:06:02.676Z,10.50
2023-03-08T03:06:35.177Z,11.50
2023-03-08T03:07:07.588Z,11.50
2023-03-08T03:07:40.078Z,10.20
2023-03-08T03:08:12.528Z,10.60
2023-03-08T03:08:45.043Z,10.90
2023-03-08T03:09:17.529Z,12.30
2023-03-08T03:09:50.030Z,11.40
2023-03-08T03:10:22.523Z,10.70
2023-03-08T03:10:54.995Z,12.10
2023-03-08T03:11:27.450Z,12.30
2023-03-08T03:11:59.929Z,11.80
2023-03-08T03:12:32.433Z,11.90
2023-03-08T03:13:04.943Z,10.90
2023-03-08T03:13:37.417Z,11.90
2023-03-08T03:14:09.933Z,12.30
2023-03-08T03:14:42.427Z,10.90
2023-03-08T03:15:14.903Z,11.50
2023-03-08T03:15:47.479Z,13.00
2023-03-08T03:16:19.913Z,12.90
2023-03-08T03:16:52.401Z,12.80
2023-03-08T03:17:24.869Z,12.40
2023-03-08T03:17:57.344Z,12.50
2023-03-08T03:18:29.820Z,12.30
2023-03-08T03:19:02.338Z,12.60
2023-03-08T03:19:34.839Z,12.50
2023-03-08T03:20:07.294Z,12.50
2023-03-08T03:20:39.755Z,13.00
2023-03-08T03:21:12.233Z,12.50
2023-03-08T03:21:44.723Z,12.50
2023-03-08T03:22:17.195Z,12.90
2023-03-08T03:22:49.700Z,12.50
2023-03-08T03:23:22.224Z,12.80
2023-03-08T03:23:54.696Z,12.60
2023-03-08T03:24:27.185Z,11.90
2023-03-08T03:24:59.666Z,12.00
2023-03-08T03:25:32.145Z,11.60
2023-03-08T03:26:04.611Z,13.00
2023-03-08T03:26:37.060Z,13.80
2023-03-08T03:27:09.525Z,12.60
2023-03-08T03:27:42.045Z,11.80
2023-03-08T03:28:14.551Z,11.90
2023-03-08T03:28:47.010Z,11.70
2023-03-08T03:29:19.498Z,12.90
2023-03-08T03:29:52.016Z,12.90
2023-03-08T03:30:24.482Z,12.10
2023-03-08T03:30:57.035Z,12.50
2023-03-08T03:31:29.479Z,12.60
2023-03-08T03:32:01.872Z,11.70
2023-03-08T03:32:34.354Z,11.30
2023-03-08T03:33:06.818Z,11.80
2023-03-08T03:33:39.308Z,13.30
2023-03-08T03:34:11.748Z,13.30
2023-03-08T03:34:44.235Z,12.80
2023-03-08T03:35:16.708Z,12.40
2023-03-08T03:35:49.229Z,12.40
2023-03-08T03:36:21.621Z,12.50
2023-03-08T03:36:54.100Z,10.80
2023-03-08T03:37:26.565Z,11.60
2023-03-08T03:37:59.071Z,12.00
2023-03-08T03:38:31.519Z,10.70
2023-03-08T03:39:03.991Z,11.50
2023-03-08T03:39:36.471Z,11.60
2023-03-08T03:40:08.953Z,11.70
2023-03-08T03:40:41.422Z,12.50
2023-03-08T03:41:13.924Z,11.90
2023-03-08T03:41:46.374Z,11.80
2023-03-08T03:42:18.882Z,11.10
2023-03-08T03:42:51.471Z,9.70
2023-03-08T03:43:23.959Z,10.10
2023-03-08T03:43:56.425Z,11.20
2023-03-08T03:44:28.977Z,10.60
2023-03-08T03:45:01.443Z,10.50
2023-03-08T03:45:33.917Z,11.80
2023-03-08T03:46:06.393Z,11.30
2023-03-08T03:46:38.906Z,11.30
2023-03-08T03:47:11.372Z,11.10
2023-03-08T03:47:43.842Z,10.60
2023-03-08T03:48:16.349Z,10.80
2023-03-08T03:48:48.920Z,10.80
2023-03-08T03:49:21.413Z,11.90
2023-03-08T03:49:53.884Z,12.60
2023-03-08T03:50:26.379Z,12.00
2023-03-08T03:50:58.922Z,12.40
2023-03-08T03:51:31.422Z,11.10
2023-03-08T03:52:03.964Z,11.70
2023-03-08T03:52:36.457Z,12.60
2023-03-08T03:53:09.032Z,12.70
2023-03-08T03:53:41.490Z,11.60
2023-03-08T03:54:13.986Z,10.10
2023-03-08T03:54:46.465Z,10.40
2023-03-08T03:55:19.027Z,10.80
2023-03-08T03:55:51.490Z,10.60
2023-03-08T03:56:23.976Z,11.10
2023-03-08T03:56:56.426Z,11.10
2023-03-08T03:57:28.891Z,10.90
2023-03-08T03:58:01.420Z,10.90
2023-03-08T03:58:33.864Z,10.70
2023-03-08T03:59:06.337Z,11.60
2023-03-08T03:59:38.898Z,11.50
2023-03-08T04:00:11.458Z,11.00
2023-03-08T04:00:43.930Z,11.70
2023-03-08T04:01:16.413Z,12.60
2023-03-08T04:01:48.936Z,11.60
2023-03-08T04:02:21.428Z,10.80
2023-03-08T04:02:53.930Z,10.80
2023-03-08T04:03:26.465Z,11.10
2023-03-08T04:03:58.894Z,11.00
2023-03-08T04:04:31.335Z,11.50
2023-03-08T04:05:03.797Z,11.70
2023-03-08T04:05:36.274Z,12.40
2023-03-08T04:06:08.756Z,11.80
2023-03-08T04:06:41.232Z,10.70
2023-03-08T04:07:13.752Z,11.40
2023-03-08T04:07:46.255Z,12.00
2023-03-08T04:08:18.735Z,12.00
2023-03-08T04:08:51.177Z,10.50
2023-03-08T04:09:23.667Z,9.90
2023-03-08T04:09:56.143Z,11.30
2023-03-08T04:10:28.599Z,11.80
2023-03-08T04:11:01.085Z,12.60
2023-03-08T04:11:33.589Z,11.50
2023-03-08T04:12:06.074Z,12.40
2023-03-08T04:12:38.556Z,12.10
2023-03-08T04:13:11.016Z,11.60
2023-03-08T04:13:43.489Z,11.00
2023-03-08T04:14:15.961Z,11.00
2023-03-08T04:14:48.451Z,11.00
2023-03-08T04:15:20.968Z,10.90
2023-03-08T04:15:53.526Z,11.80
2023-03-08T04:16:28.668Z,12.30
2023-03-08T04:16:58.434Z,11.50
2023-03-08T04:17:30.907Z,10.60
2023-03-08T04:18:03.346Z,10.40
2023-03-08T04:18:35.801Z,11.10
2023-03-08T04:19:08.355Z,11.70
2023-03-08T04:19:40.859Z,11.20
2023-03-08T04:20:13.326Z,11.00
2023-03-08T04:20:45.872Z,11.10
2023-03-08T04:21:18.353Z,12.40
2023-03-08T04:21:50.802Z,11.90
2023-03-08T04:22:23.286Z,11.70
2023-03-08T04:22:55.792Z,11.60
2023-03-08T04:23:28.273Z,11.30
2023-03-08T04:24:00.961Z,10.60
2023-03-08T04:24:33.234Z,10.20
2023-03-08T04:25:05.779Z,11.00
2023-03-08T04:25:38.271Z,11.70
2023-03-08T04:26:10.756Z,11.60
2023-03-08T04:26:43.229Z,11.80
2023-03-08T04:27:15.722Z,11.40
2023-03-08T04:27:48.241Z,11.00
2023-03-08T04:28:20.700Z,11.50
2023-03-08T04:28:53.168Z,12.80
2023-03-08T04:29:25.669Z,12.60
2023-03-08T04:29:58.155Z,12.10
2023-03-08T04:30:30.715Z,11.20
2023-03-08T04:31:03.214Z,11.30
2023-03-08T04:31:35.677Z,11.50
2023-03-08T04:32:08.174Z,11.50
2023-03-08T04:32:40.606Z,11.90
2023-03-08T04:33:13.047Z,12.30
2023-03-08T04:33:45.524Z,11.80
2023-03-08T04:34:18.013Z,12.10
2023-03-08T04:34:50.493Z,12.30
2023-03-08T04:35:22.991Z,11.80
2023-03-08T04:35:55.442Z,12.60
2023-03-08T04:36:27.889Z,11.30
2023-03-08T04:37:00.379Z,11.30
2023-03-08T04:37:32.880Z,11.80
2023-03-08T04:38:05.336Z,10.70
2023-03-08T04:38:37.805Z,10.60
2023-03-08T04:39:10.291Z,10.60
2023-03-08T04:39:42.756Z,10.70
2023-03-08T04:40:15.235Z,11.20
2023-03-08T04:40:47.705Z,10.90
2023-03-08T04:41:20.169Z,10.50
2023-03-08T04:41:52.653Z,11.60
2023-03-08T04:42:25.113Z,12.70
2023-03-08T04:42:57.624Z,12.20
2023-03-08T04:43:30.083Z,11.80
2023-03-08T04:44:02.560Z,11.60
2023-03-08T04:44:35.030Z,12.40
2023-03-08T04:45:07.494Z,11.90
2023-03-08T04:45:40.047Z,11.70
2023-03-08T04:46:12.529Z,11.70
2023-03-08T04:46:45.015Z,12.00
2023-03-08T04:47:17.463Z,11.50
2023-03-08T04:47:49.954Z,10.20
2023-03-08T04:48:23.115Z,10.60
2023-03-08T04:48:54.877Z,12.10
2023-03-08T04:49:27.361Z,11.30
2023-03-08T04:49:59.911Z,10.60
2023-03-08T04:50:32.406Z,10.80
2023-03-08T04:51:04.893Z,11.50
2023-03-08T04:51:37.342Z,11.60
2023-03-08T04:52:09.842Z,12.90
2023-03-08T04:52:42.358Z,12.40
2023-03-08T04:53:14.856Z,11.10
2023-03-08T04:53:47.345Z,11.30
2023-03-08T04:54:19.783Z,10.90
2023-03-08T04:54:52.259Z,11.70
2023-03-08T04:55:24.771Z,12.00
2023-03-08T04:55:57.228Z,10.30
2023-03-08T04:56:29.782Z,10.60
2023-03-08T04:57:02.256Z,10.90
2023-03-08T04:57:34.725Z,10.60
2023-03-08T04:58:07.184Z,10.00
2023-03-08T04:58:39.698Z,10.00
2023-03-08T04:59:12.196Z,10.60
2023-03-08T04:59:44.681Z,11.50
2023-03-08T05:00:17.129Z,11.20
2023-03-08T05:00:49.691Z,11.60
2023-03-08T05:01:22.229Z,11.80
2023-03-08T05:01:54.737Z,12.80
2023-03-08T05:02:27.257Z,12.50
2023-03-08T05:02:59.652Z,12.10
2023-03-08T05:03:32.128Z,12.30
2023-03-08T05:04:04.581Z,11.50
2023-03-08T05:04:37.057Z,10.70
2023-03-08T05:05:09.579Z,10.60
2023-03-08T05:05:42.013Z,11.70
2023-03-08T05:06:14.490Z,12.00
2023-03-08T05:06:46.975Z,12.10
2023-03-08T05:07:19.437Z,11.30
2023-03-08T05:07:51.903Z,11.30
2023-03-08T05:08:24.363Z,13.10
2023-03-08T05:08:56.907Z,13.30
2023-03-08T05:09:29.349Z,12.20
2023-03-08T05:10:01.849Z,11.40
2023-03-08T05:10:34.314Z,12.10
2023-03-08T05:11:06.791Z,11.90
2023-03-08T05:11:39.244Z,11.20
2023-03-08T05:12:11.706Z,12.50
2023-03-08T05:12:44.224Z,12.80
2023-03-08T05:13:23.956Z,13.10
2023-03-08T05:13:56.524Z,13.00
2023-03-08T05:14:29.010Z,13.80
2023-03-08T05:15:01.510Z,13.70
2023-03-08T05:15:33.998Z,12.30
2023-03-08T05:16:06.507Z,12.40
2023-03-08T05:16:38.984Z,13.30
2023-03-08T05:17:11.443Z,12.90
2023-03-08T05:17:43.921Z,12.60
2023-03-08T05:18:16.434Z,12.40
2023-03-08T05:18:48.898Z,12.70
2023-03-08T05:19:21.424Z,12.20
2023-03-08T05:19:53.925Z,12.30
2023-03-08T05:20:26.508Z,12.90
2023-03-08T05:20:58.992Z,12.80
2023-03-08T05:21:31.514Z,12.00
2023-03-08T05:22:04.006Z,13.00
2023-03-08T05:22:51.511Z,14.60
2023-03-08T05:23:08.973Z,13.60
2023-03-08T05:23:41.490Z,12.30
2023-03-08T05:24:13.960Z,14.00
2023-03-08T05:24:46.493Z,13.20
2023-03-08T05:25:19.039Z,13.00
2023-03-08T05:25:51.639Z,14.70
2023-03-08T05:26:24.149Z,14.20
2023-03-08T05:26:56.619Z,14.10
2023-03-08T05:27:29.178Z,13.20
2023-03-08T05:28:01.666Z,10.80
2023-03-08T05:28:34.135Z,11.40
2023-03-08T05:29:06.627Z,12.50
2023-03-08T05:29:39.085Z,11.40
2023-03-08T05:30:11.546Z,11.70
2023-03-08T05:30:44.063Z,13.10
2023-03-08T05:31:16.607Z,14.10
2023-03-08T05:31:49.114Z,14.00
2023-03-08T05:32:21.525Z,14.60
2023-03-08T05:32:53.989Z,13.60
2023-03-08T05:33:26.463Z,12.50
2023-03-08T05:33:58.988Z,13.20
2023-03-08T05:34:31.474Z,13.70
2023-03-08T05:35:04.031Z,14.50
2023-03-08T05:35:36.591Z,14.10
2023-03-08T05:36:09.176Z,14.30
2023-03-08T05:36:41.573Z,12.80
2023-03-08T05:37:14.639Z,13.50
2023-03-08T05:37:46.523Z,14.00
2023-03-08T05:38:19.014Z,13.80
2023-03-08T05:38:51.611Z,14.70
2023-03-08T05:39:24.163Z,14.70
2023-03-08T05:39:56.665Z,14.10
2023-03-08T05:40:29.209Z,14.40
2023-03-08T05:41:01.688Z,15.70
2023-03-08T05:41:34.160Z,14.30
2023-03-08T05:42:06.658Z,13.10
2023-03-08T05:42:39.117Z,14.60
2023-03-08T05:43:11.582Z,15.20
2023-03-08T05:43:44.156Z,15.30
2023-03-08T05:44:16.637Z,15.10
2023-03-08T05:44:49.135Z,13.90
2023-03-08T05:45:21.618Z,13.50
2023-03-08T05:45:54.209Z,14.90
2023-03-08T05:46:26.668Z,14.30
2023-03-08T05:46:59.153Z,13.40
2023-03-08T05:47:31.612Z,12.90
2023-03-08T05:48:04.166Z,13.70
2023-03-08T05:48:36.661Z,14.30
2023-03-08T05:49:09.147Z,14.60
2023-03-08T05:49:41.666Z,15.10
2023-03-08T05:50:14.142Z,14.30
2023-03-08T05:50:46.615Z,13.80
2023-03-08T05:51:19.151Z,14.10
2023-03-08T05:51:51.577Z,15.30
2023-03-08T05:52:24.093Z,14.70
2023-03-08T05:52:56.567Z,14.60
2023-03-08T05:53:29.059Z,15.50
2023-03-08T05:54:01.535Z,14.70
2023-03-08T05:54:34.045Z,14.20
2023-03-08T05:55:06.501Z,14.20
2023-03-08T05:55:38.971Z,14.70
2023-03-08T05:56:11.436Z,14.90
2023-03-08T05:56:43.914Z,15.30
2023-03-08T05:57:16.383Z,14.40
2023-03-08T05:57:48.877Z,13.90
2023-03-08T05:58:21.383Z,14.90
2023-03-08T05:58:53.961Z,16.60
2023-03-08T05:59:26.467Z,16.00
2023-03-08T05:59:58.996Z,16.00
2023-03-08T06:00:31.472Z,15.60
2023-03-08T06:01:03.971Z,15.20
2023-03-08T06:01:36.611Z,16.60
2023-03-08T06:02:09.212Z,16.70
2023-03-08T06:02:41.659Z,16.80
2023-03-08T06:03:14.188Z,15.20
2023-03-08T06:03:46.605Z,14.10
2023-03-08T06:04:19.085Z,17.00
2023-03-08T06:04:51.533Z,17.40
2023-03-08T06:05:24.019Z,16.60
2023-03-08T06:05:56.565Z,15.50
2023-03-08T06:06:29.039Z,14.70
2023-03-08T06:07:01.545Z,15.50
2023-03-08T06:07:34.019Z,15.40
2023-03-08T06:08:06.512Z,17.30
2023-03-08T06:08:38.985Z,17.70
2023-03-08T06:09:11.450Z,15.40
2023-03-08T06:09:43.951Z,15.30
2023-03-08T06:10:16.451Z,15.90
2023-03-08T06:10:49.057Z,15.00
2023-03-08T06:11:21.544Z,15.40
2023-03-08T06:11:54.093Z,15.60
2023-03-08T06:12:26.556Z,16.80
2023-03-08T06:12:59.076Z,16.50
2023-03-08T06:13:31.508Z,16.10
2023-03-08T06:14:04.004Z,15.90
2023-03-08T06:14:36.474Z,16.80
2023-03-08T06:15:08.949Z,16.60
2023-03-08T06:15:41.443Z,16.30
2023-03-08T06:16:14.042Z,15.70
2023-03-08T06:16:46.538Z,15.20
2023-03-08T06:17:18.972Z,16.70
2023-03-08T06:17:51.446Z,15.90
2023-03-08T06:18:23.921Z,14.50
2023-03-08T06:18:56.409Z,14.70
2023-03-08T06:19:28.871Z,15.40
2023-03-08T06:20:01.340Z,15.70
2023-03-08T06:20:33.808Z,15.30
2023-03-08T06:21:06.364Z,15.60
2023-03-08T06:21:38.824Z,16.20
2023-03-08T06:22:11.283Z,16.50
2023-03-08T06:22:43.745Z,17.60
2023-03-08T06:23:16.218Z,16.10
2023-03-08T06:23:48.698Z,15.50
2023-03-08T06:24:21.161Z,15.50
2023-03-08T06:24:53.638Z,15.50
2023-03-08T06:25:26.120Z,16.00
2023-03-08T06:25:58.607Z,16.20
2023-03-08T06:26:31.054Z,16.90
2023-03-08T06:27:03.517Z,18.20
2023-03-08T06:27:35.981Z,17.70
2023-03-08T06:28:08.441Z,17.10
2023-03-08T06:28:40.898Z,15.50
2023-03-08T06:29:13.382Z,16.70
2023-03-08T06:29:45.879Z,17.60
2023-03-08T06:30:18.345Z,18.10
2023-03-08T06:30:50.832Z,17.40
2023-03-08T06:31:23.431Z,16.30
2023-03-08T06:31:55.914Z,16.70
2023-03-08T06:32:28.388Z,17.30
2023-03-08T06:33:00.860Z,17.00
2023-03-08T06:33:33.298Z,16.90
2023-03-08T06:34:05.800Z,17.60
2023-03-08T06:34:38.265Z,17.80
2023-03-08T06:35:10.768Z,17.20
2023-03-08T06:35:43.280Z,17.30
2023-03-08T06:36:15.698Z,16.40
2023-03-08T06:36:48.157Z,17.30
2023-03-08T06:37:20.633Z,17.90
2023-03-08T06:37:53.131Z,18.30
2023-03-08T06:38:26.675Z,18.00
2023-03-08T06:38:58.099Z,16.60
2023-03-08T06:39:30.650Z,16.40
2023-03-08T06:40:03.158Z,16.90
2023-03-08T06:40:35.657Z,18.10
2023-03-08T06:41:08.144Z,18.30
2023-03-08T06:41:40.590Z,16.50
2023-03-08T06:42:13.063Z,16.80
2023-03-08T06:42:45.526Z,17.30
2023-03-08T06:43:18.005Z,17.50
2023-03-08T06:43:50.450Z,18.10
2023-03-08T06:44:22.922Z,19.40
2023-03-08T06:44:55.420Z,18.50
2023-03-08T06:45:27.936Z,17.40
2023-03-08T06:46:00.455Z,18.00
2023-03-08T06:46:33.006Z,17.00
2023-03-08T06:47:05.407Z,17.30
2023-03-08T06:47:37.855Z,17.20
2023-03-08T06:48:10.354Z,17.20
2023-03-08T06:48:42.864Z,19.00
2023-03-08T06:49:15.336Z,18.60
2023-03-08T06:49:47.829Z,18.00
2023-03-08T06:50:20.362Z,18.40
2023-03-08T06:50:52.754Z,17.70
2023-03-08T06:51:25.224Z,17.40
2023-03-08T06:51:57.682Z,16.90
2023-03-08T06:52:30.139Z,19.80
2023-03-08T06:53:02.636Z,19.20
2023-03-08T06:53:35.076Z,18.40
2023-03-08T06:54:07.648Z,19.20
2023-03-08T06:54:40.132Z,19.00
2023-03-08T06:55:12.627Z,18.60
2023-03-08T06:55:45.102Z,17.30
2023-03-08T06:56:17.647Z,16.90
2023-03-08T06:56:50.128Z,17.60
2023-03-08T06:57:22.590Z,18.20
2023-03-08T06:57:55.049Z,19.00
2023-03-08T06:58:27.512Z,20.10
2023-03-08T06:58:59.987Z,19.20
2023-03-08T06:59:32.438Z,17.70
2023-03-08T07:00:04.909Z,17.80
2023-03-08T07:00:37.370Z,18.50
2023-03-08T07:01:09.922Z,18.90
2023-03-08T07:01:42.410Z,17.70
2023-03-08T07:02:14.825Z,17.00
2023-03-08T07:02:47.305Z,18.10